createdAt,value
2023-04-30T00:02:17.605Z,56.61
2023-04-30T00:04:44.322Z,56.64
2023-04-30T00:07:11.486Z,56.54
2023-04-30T00:09:39.354Z,56.24
2023-04-30T00:12:06.505Z,56.15
2023-04-30T00:14:35.151Z,56.60
2023-04-30T00:17:01.856Z,56.34
2023-04-30T00:19:28.492Z,55.97
2023-04-30T00:21:55.371Z,55.56
2023-04-30T00:24:22.291Z,55.54
2023-04-30T00:26:48.923Z,56.43
2023-04-30T00:29:15.712Z,55.74
2023-04-30T00:31:42.562Z,55.25
2023-04-30T00:34:09.317Z,56.26
2023-04-30T00:36:35.951Z,55.71
2023-04-30T00:39:02.640Z,55.66
2023-04-30T00:41:29.457Z,55.78
2023-04-30T00:43:56.362Z,55.57
2023-04-30T00:46:23.151Z,55.94
2023-04-30T00:48:50.147Z,55.89
2023-04-30T00:51:16.764Z,56.10
2023-04-30T00:53:43.811Z,55.28
2023-04-30T00:56:11.656Z,55.55
2023-04-30T00:58:38.386Z,55.67
2023-04-30T01:01:05.401Z,55.64
2023-04-30T01:03:32.274Z,55.87
2023-04-30T01:05:58.846Z,55.62
2023-04-30T01:08:26.427Z,56.05
2023-04-30T01:11:11.526Z,56.23
2023-04-30T01:14:03.016Z,55.96
2023-04-30T01:16:33.879Z,55.87
2023-04-30T01:19:05.634Z,55.79
2023-04-30T01:21:33.603Z,55.26
2023-04-30T01:24:23.153Z,55.28
2023-04-30T01:27:25.315Z,55.19
2023-04-30T01:29:52.861Z,55.31
2023-04-30T01:32:19.509Z,55.20
2023-04-30T01:34:46.013Z,55.12
2023-04-30T01:37:22.659Z,55.24
2023-04-30T01:39:58.389Z,55.40
2023-04-30T01:42:36.120Z,55.11
2023-04-30T01:45:18.873Z,55.72
2023-04-30T01:47:48.629Z,55.78
2023-04-30T01:50:27.200Z,55.88
2023-04-30T01:52:57.236Z,55.49
2023-04-30T01:55:28.916Z,55.69
2023-04-30T01:58:03.915Z,55.90
2023-04-30T02:00:33.191Z,56.03
2023-04-30T02:03:00.058Z,55.54
2023-04-30T02:05:26.792Z,55.49
2023-04-30T02:07:53.538Z,55.33
2023-04-30T02:10:23.873Z,55.73
2023-04-30T02:12:50.600Z,55.50
2023-04-30T02:15:17.299Z,56.20
2023-04-30T02:17:43.781Z,56.33
2023-04-30T02:20:10.953Z,56.48
2023-04-30T02:22:37.538Z,56.64
2023-04-30T02:25:04.401Z,56.74
2023-04-30T02:27:32.091Z,56.85
2023-04-30T02:29:59.198Z,57.00
2023-04-30T02:32:26.137Z,56.41
2023-04-30T02:34:52.609Z,56.23
2023-04-30T02:37:19.242Z,56.46
2023-04-30T02:39:46.348Z,56.23
2023-04-30T02:42:13.086Z,56.23
2023-04-30T02:44:42.578Z,56.58
2023-04-30T02:47:09.221Z,57.51
2023-04-30T02:49:35.930Z,56.60
2023-04-30T02:52:02.535Z,56.79
2023-04-30T02:54:29.237Z,56.39
2023-04-30T02:56:56.108Z,56.31
2023-04-30T02:59:22.953Z,56.15
2023-04-30T03:01:49.532Z,56.06
2023-04-30T03:04:16.280Z,56.19
2023-04-30T03:06:42.942Z,55.67
2023-04-30T03:09:09.711Z,55.58
2023-04-30T03:11:37.713Z,55.67
2023-04-30T03:14:07.707Z,55.61
2023-04-30T03:16:34.288Z,55.65
2023-04-30T03:19:01.110Z,55.31
2023-04-30T03:21:27.563Z,55.40
2023-04-30T03:23:54.020Z,55.48
2023-04-30T03:26:20.961Z,55.84
2023-04-30T03:28:47.664Z,55.36
2023-04-30T03:31:14.167Z,55.85
2023-04-30T03:33:40.818Z,55.32
2023-04-30T03:36:07.488Z,55.69
2023-04-30T03:38:33.926Z,55.49
2023-04-30T03:41:00.495Z,55.76
2023-04-30T03:43:26.997Z,55.32
2023-04-30T03:45:53.597Z,56.03
2023-04-30T03:48:20.475Z,55.93
2023-04-30T03:50:47.144Z,55.89
2023-04-30T03:53:13.727Z,56.42
2023-04-30T03:55:40.276Z,56.50
2023-04-30T03:58:06.835Z,56.52
2023-04-30T04:00:33.368Z,56.53
2023-04-30T04:02:59.996Z,56.34
2023-04-30T04:05:26.790Z,56.58
2023-04-30T04:07:53.411Z,56.51
2023-04-30T04:10:19.924Z,56.45
2023-04-30T04:12:46.651Z,56.22
2023-04-30T04:15:13.462Z,56.08
2023-04-30T04:17:40.177Z,57.08
2023-04-30T04:20:07.613Z,56.62
2023-04-30T04:22:34.082Z,56.88
2023-04-30T04:25:01.354Z,57.41
2023-04-30T04:27:27.865Z,57.22
2023-04-30T04:29:55.162Z,57.02
2023-04-30T04:32:22.788Z,57.29
2023-04-30T04:34:49.669Z,57.67
2023-04-30T04:37:17.595Z,57.21
2023-04-30T04:39:45.066Z,56.67
2023-04-30T04:42:12.032Z,56.43
2023-04-30T04:44:38.589Z,56.51
2023-04-30T04:47:05.271Z,56.43
2023-04-30T04:49:31.829Z,56.28
2023-04-30T04:51:58.340Z,56.25
2023-04-30T04:54:24.926Z,56.40
2023-04-30T04:56:51.750Z,57.31
2023-04-30T04:59:18.927Z,56.51
2023-04-30T05:01:45.629Z,56.03
2023-04-30T05:04:13.814Z,56.34
2023-04-30T05:06:41.590Z,55.77
2023-04-30T05:09:09.593Z,55.88
2023-04-30T05:11:36.297Z,55.88
2023-04-30T05:14:03.163Z,55.48
2023-04-30T05:16:30.215Z,55.40
2023-04-30T05:18:56.720Z,55.42
2023-04-30T05:21:23.295Z,55.43
2023-04-30T05:23:50.084Z,55.83
2023-04-30T05:26:16.579Z,56.94
2023-04-30T05:28:43.089Z,56.88
2023-04-30T05:31:09.558Z,57.73
2023-04-30T05:33:37.143Z,58.43
2023-04-30T05:36:04.037Z,58.81
2023-04-30T05:38:30.571Z,59.17
2023-04-30T05:40:56.984Z,59.87
2023-04-30T05:43:23.563Z,60.09
2023-04-30T05:45:50.075Z,59.88
2023-04-30T05:48:16.683Z,61.39
2023-04-30T05:50:43.525Z,62.31
2023-04-30T05:53:10.468Z,62.40
2023-04-30T05:55:36.980Z,61.03
2023-04-30T05:58:03.666Z,60.72
2023-04-30T06:00:30.130Z,62.41
2023-04-30T06:02:56.604Z,62.73
2023-04-30T06:05:23.218Z,62.33
2023-04-30T06:07:52.119Z,62.21
2023-04-30T06:10:18.658Z,61.14
2023-04-30T06:12:45.238Z,62.30
2023-04-30T06:15:12.066Z,61.92
2023-04-30T06:17:38.637Z,61.88
2023-04-30T06:20:07.220Z,62.41
2023-04-30T06:22:34.308Z,61.29
2023-04-30T06:25:01.552Z,60.81
2023-04-30T06:27:28.078Z,59.74
2023-04-30T06:29:54.884Z,60.32
2023-04-30T06:32:21.593Z,59.24
2023-04-30T06:34:48.203Z,59.50
2023-04-30T06:37:14.773Z,58.65
2023-04-30T06:39:41.232Z,58.89
2023-04-30T06:42:07.683Z,57.70
2023-04-30T06:44:34.262Z,57.79
2023-04-30T06:47:00.728Z,58.53
2023-04-30T06:49:27.295Z,58.11
2023-04-30T06:51:55.696Z,57.28
2023-04-30T06:54:22.872Z,58.85
2023-04-30T06:56:49.618Z,59.64
2023-04-30T06:59:16.604Z,59.93
2023-04-30T07:01:43.428Z,58.28
2023-04-30T07:04:10.005Z,57.75
2023-04-30T07:06:37.114Z,57.56
2023-04-30T07:09:03.812Z,57.00
2023-04-30T07:11:30.604Z,56.92
2023-04-30T07:13:57.133Z,57.00
2023-04-30T07:16:25.479Z,56.98
2023-04-30T07:18:52.423Z,57.14
2023-04-30T07:21:18.989Z,57.34
2023-04-30T07:23:45.648Z,56.73
2023-04-30T07:26:12.188Z,56.36
2023-04-30T07:28:39.167Z,55.78
2023-04-30T07:31:05.987Z,54.92
2023-04-30T07:33:33.325Z,54.93
2023-04-30T07:35:59.789Z,55.74
2023-04-30T07:38:26.401Z,54.79
2023-04-30T07:40:52.886Z,53.79
2023-04-30T07:43:19.373Z,54.31
2023-04-30T07:45:46.033Z,53.97
2023-04-30T07:48:12.808Z,53.29
2023-04-30T07:50:39.250Z,52.96
2023-04-30T07:53:09.243Z,51.62
2023-04-30T07:55:35.936Z,51.40
2023-04-30T07:58:03.741Z,52.21
2023-04-30T08:00:31.160Z,50.34
2023-04-30T08:02:58.885Z,50.71
2023-04-30T08:05:25.438Z,50.70
2023-04-30T08:07:51.950Z,49.84
2023-04-30T08:10:18.454Z,49.30
2023-04-30T08:12:45.140Z,49.23
2023-04-30T08:15:11.597Z,48.47
2023-04-30T08:17:38.104Z,47.88
2023-04-30T08:20:05.229Z,47.43
2023-04-30T08:22:31.822Z,46.61
2023-04-30T08:24:58.408Z,48.41
2023-04-30T08:27:24.846Z,48.34
2023-04-30T08:29:51.341Z,47.54
2023-04-30T08:32:19.159Z,47.68
2023-04-30T08:34:46.323Z,46.38
2023-04-30T08:37:12.866Z,46.29
2023-04-30T08:39:39.561Z,44.90
2023-04-30T08:42:08.983Z,46.18
2023-04-30T08:44:39.696Z,44.46
2023-04-30T08:47:06.977Z,42.90
2023-04-30T08:49:33.916Z,42.94
2023-04-30T08:52:01.135Z,41.28
2023-04-30T08:54:33.418Z,41.36
2023-04-30T08:56:59.906Z,42.68
2023-04-30T08:59:26.383Z,40.29
2023-04-30T09:01:53.943Z,38.04
2023-04-30T09:04:20.949Z,37.57
2023-04-30T09:06:47.602Z,36.34
2023-04-30T09:09:16.036Z,36.00
2023-04-30T09:11:43.123Z,36.18
2023-04-30T09:14:10.102Z,36.18
2023-04-30T09:16:47.081Z,36.82
2023-04-30T09:19:24.768Z,35.91
2023-04-30T09:21:51.280Z,34.07
2023-04-30T09:24:18.700Z,27.98
2023-04-30T09:26:47.288Z,25.42
2023-04-30T09:29:14.057Z,19.62
2023-04-30T09:31:47.229Z,15.45
2023-04-30T09:34:14.992Z,15.12
2023-04-30T09:36:57.208Z,12.85
2023-04-30T09:39:24.009Z,11.39
2023-04-30T09:41:51.710Z,10.22
2023-04-30T09:44:32.921Z,10.11
2023-04-30T09:46:59.898Z,9.21
2023-04-30T09:49:27.564Z,9.25
2023-04-30T09:51:58.986Z,9.30
2023-04-30T09:54:29.413Z,8.81
2023-04-30T09:56:58.088Z,8.40
2023-04-30T09:59:33.935Z,8.05
2023-04-30T10:02:01.913Z,6.93
2023-04-30T10:04:32.074Z,7.67
2023-04-30T10:07:01.652Z,7.80
2023-04-30T10:09:34.578Z,7.50
2023-04-30T10:12:03.901Z,6.58
2023-04-30T10:14:31.201Z,8.88
2023-04-30T10:17:04.424Z,11.91
2023-04-30T10:19:32.319Z,9.99
2023-04-30T10:21:59.545Z,9.23
2023-04-30T10:24:27.166Z,8.60
2023-04-30T10:26:54.994Z,8.60
2023-04-30T10:29:21.497Z,8.93
2023-04-30T10:31:49.562Z,9.39
2023-04-30T10:34:34.772Z,8.93
2023-04-30T10:37:07.723Z,9.43
2023-04-30T10:39:35.438Z,8.11
2023-04-30T10:42:06.844Z,10.18
2023-04-30T10:44:35.177Z,10.72
2023-04-30T10:47:03.231Z,12.07
2023-04-30T10:49:30.378Z,11.48
2023-04-30T10:52:00.741Z,11.06
2023-04-30T10:54:29.087Z,9.24
2023-04-30T10:57:12.637Z,9.50
2023-04-30T10:59:45.008Z,9.85
2023-04-30T11:02:12.960Z,8.84
2023-04-30T11:05:08.924Z,8.07
2023-04-30T11:07:36.107Z,11.86
2023-04-30T11:10:03.125Z,11.10
2023-04-30T11:12:29.721Z,9.70
2023-04-30T11:15:08.500Z,8.87
2023-04-30T11:17:35.082Z,9.33
2023-04-30T11:20:02.105Z,10.31
2023-04-30T11:22:36.294Z,10.57
2023-04-30T11:25:05.514Z,9.71
2023-04-30T11:27:34.003Z,9.45
2023-04-30T11:30:01.500Z,9.63
2023-04-30T11:32:35.725Z,8.80
2023-04-30T11:35:04.242Z,9.45
2023-04-30T11:37:32.481Z,10.68
2023-04-30T11:40:01.280Z,10.46
2023-04-30T11:42:30.111Z,8.85
2023-04-30T11:45:09.327Z,9.27
2023-04-30T11:47:46.536Z,9.33
2023-04-30T11:50:15.116Z,8.41
2023-04-30T11:52:42.634Z,7.91
2023-04-30T11:55:16.712Z,7.04
2023-04-30T11:57:44.951Z,8.94
2023-04-30T12:00:13.661Z,7.79
2023-04-30T12:02:41.859Z,7.04
2023-04-30T12:05:18.231Z,8.53
2023-04-30T12:07:47.090Z,8.50
2023-04-30T12:10:13.925Z,11.08
2023-04-30T12:12:43.005Z,10.90
2023-04-30T12:15:13.754Z,13.89
2023-04-30T12:17:40.666Z,16.99
2023-04-30T12:20:09.392Z,19.27
2023-04-30T12:22:37.126Z,22.26
2023-04-30T12:25:09.859Z,23.27
2023-04-30T12:27:36.613Z,25.32
2023-04-30T12:30:08.057Z,26.80
2023-04-30T12:32:54.601Z,27.79
2023-04-30T12:35:23.331Z,28.01
2023-04-30T12:38:01.116Z,28.96
2023-04-30T12:40:27.982Z,29.48
2023-04-30T12:43:05.517Z,31.08
2023-04-30T12:45:45.584Z,31.65
2023-04-30T12:48:14.561Z,31.68
2023-04-30T12:50:41.674Z,32.20
2023-04-30T12:53:08.184Z,31.09
2023-04-30T12:55:37.365Z,31.53
2023-04-30T12:58:11.416Z,32.59
2023-04-30T13:00:44.760Z,32.31
2023-04-30T13:03:12.717Z,31.57
2023-04-30T13:05:44.380Z,32.03
2023-04-30T13:08:10.883Z,33.08
2023-04-30T13:10:37.990Z,33.94
2023-04-30T13:13:04.418Z,34.42
2023-04-30T13:15:31.357Z,32.65
2023-04-30T13:17:58.003Z,31.73
2023-04-30T13:20:25.195Z,32.71
2023-04-30T13:22:52.013Z,33.42
2023-04-30T13:25:18.883Z,32.54
2023-04-30T13:27:45.437Z,32.42
2023-04-30T13:30:12.533Z,32.39
2023-04-30T13:32:39.023Z,32.41
2023-04-30T13:35:06.372Z,32.03
2023-04-30T13:37:32.949Z,32.08
2023-04-30T13:40:01.432Z,30.94
2023-04-30T13:42:27.902Z,31.80
2023-04-30T13:44:54.497Z,30.87
2023-04-30T13:47:21.724Z,31.29
2023-04-30T13:49:48.208Z,31.13
2023-04-30T13:52:14.728Z,31.42
2023-04-30T13:54:41.484Z,31.11
2023-04-30T13:57:07.974Z,30.98
2023-04-30T13:59:34.680Z,31.29
2023-04-30T14:02:01.358Z,31.57
2023-04-30T14:04:27.918Z,31.57
2023-04-30T14:06:56.653Z,31.57
2023-04-30T14:09:23.253Z,30.63
2023-04-30T14:11:49.787Z,32.03
2023-04-30T14:14:16.245Z,30.42
2023-04-30T14:16:44.235Z,30.60
2023-04-30T14:19:11.094Z,31.30
2023-04-30T14:21:37.518Z,29.79
2023-04-30T14:24:04.817Z,30.66
2023-04-30T14:26:31.540Z,30.76
2023-04-30T14:28:58.150Z,30.43
2023-04-30T14:31:24.978Z,30.25
2023-04-30T14:33:51.498Z,29.53
2023-04-30T14:36:19.621Z,29.21
2023-04-30T14:38:46.299Z,29.67
2023-04-30T14:41:12.983Z,28.99
2023-04-30T14:43:40.460Z,29.95
2023-04-30T14:46:07.490Z,30.24
2023-04-30T14:48:34.056Z,30.93
2023-04-30T14:51:01.368Z,30.53
2023-04-30T14:53:27.864Z,29.61
2023-04-30T14:55:54.302Z,29.41
2023-04-30T14:58:20.911Z,30.49
2023-04-30T15:00:48.328Z,30.65
2023-04-30T15:03:15.008Z,31.29
2023-04-30T15:05:41.671Z,30.88
2023-04-30T15:08:08.220Z,30.66
2023-04-30T15:10:35.362Z,30.56
2023-04-30T15:13:05.098Z,29.74
2023-04-30T15:15:31.606Z,30.14
2023-04-30T15:17:58.734Z,29.69
2023-04-30T15:20:25.254Z,30.17
2023-04-30T15:22:53.681Z,29.46
2023-04-30T15:25:21.938Z,29.72
2023-04-30T15:27:48.408Z,29.91
2023-04-30T15:30:15.010Z,30.28
2023-04-30T15:32:41.724Z,30.04
2023-04-30T15:35:08.709Z,29.97
2023-04-30T15:37:35.434Z,31.23
2023-04-30T15:40:02.047Z,30.85
2023-04-30T15:42:28.698Z,30.46
2023-04-30T15:44:55.481Z,31.18
2023-04-30T15:47:24.010Z,30.80
2023-04-30T15:49:50.749Z,30.59
2023-04-30T15:52:17.638Z,30.80
2023-04-30T15:54:44.162Z,30.54
2023-04-30T15:57:10.630Z,31.59
2023-04-30T15:59:37.302Z,31.47
2023-04-30T16:02:04.971Z,31.19
2023-04-30T16:04:31.477Z,31.23
2023-04-30T16:07:01.028Z,31.13
2023-04-30T16:09:27.878Z,30.53
2023-04-30T16:11:55.874Z,31.66
2023-04-30T16:14:22.468Z,32.13
2023-04-30T16:16:49.389Z,31.81
2023-04-30T16:19:17.139Z,31.92
2023-04-30T16:21:44.807Z,32.03
2023-04-30T16:24:11.810Z,32.11
2023-04-30T16:26:38.319Z,32.22
2023-04-30T16:29:05.045Z,32.21
2023-04-30T16:31:32.512Z,32.52
2023-04-30T16:33:59.023Z,32.44
2023-04-30T16:36:25.734Z,32.74
2023-04-30T16:38:52.323Z,32.92
2023-04-30T16:41:19.091Z,33.33
2023-04-30T16:43:45.748Z,32.83
2023-04-30T16:46:12.364Z,32.32
2023-04-30T16:48:39.589Z,32.60
2023-04-30T16:51:07.523Z,32.01
2023-04-30T16:53:34.266Z,32.63
2023-04-30T16:56:00.801Z,33.14
2023-04-30T16:58:27.612Z,32.75
2023-04-30T17:00:56.141Z,33.57
2023-04-30T17:03:23.933Z,33.44
2023-04-30T17:05:52.131Z,33.32
2023-04-30T17:08:20.113Z,33.43
2023-04-30T17:10:47.593Z,33.61
2023-04-30T17:13:14.297Z,33.99
2023-04-30T17:15:41.120Z,33.53
2023-04-30T17:18:09.552Z,34.27
2023-04-30T17:20:36.098Z,34.66
2023-04-30T17:23:03.280Z,34.24
2023-04-30T17:25:31.746Z,34.31
2023-04-30T17:28:01.479Z,34.47
2023-04-30T17:30:28.888Z,33.99
2023-04-30T17:32:56.340Z,33.95
2023-04-30T17:35:23.196Z,34.09
2023-04-30T17:37:50.112Z,34.36
2023-04-30T17:40:16.840Z,33.99
2023-04-30T17:42:43.916Z,34.74
2023-04-30T17:45:10.948Z,34.89
2023-04-30T17:47:37.798Z,34.89
2023-04-30T17:50:08.369Z,34.31
2023-04-30T17:52:38.318Z,35.00
2023-04-30T17:55:08.804Z,34.55
2023-04-30T17:57:35.927Z,34.90
2023-04-30T18:00:04.524Z,34.39
2023-04-30T18:02:31.540Z,34.78
2023-04-30T18:04:57.977Z,34.44
2023-04-30T18:07:24.570Z,35.08
2023-04-30T18:09:52.470Z,34.98
2023-04-30T18:12:19.060Z,35.35
2023-04-30T18:14:45.765Z,35.07
2023-04-30T18:17:12.426Z,35.35
2023-04-30T18:19:43.892Z,35.00
2023-04-30T18:22:12.372Z,35.64
2023-04-30T18:24:39.546Z,35.81
2023-04-30T18:27:06.899Z,36.20
2023-04-30T18:29:33.998Z,36.61
2023-04-30T18:32:00.547Z,35.96
2023-04-30T18:34:28.158Z,36.18
2023-04-30T18:36:54.787Z,36.16
2023-04-30T18:39:24.316Z,35.98
2023-04-30T18:41:51.175Z,36.36
2023-04-30T18:44:17.979Z,36.02
2023-04-30T18:46:44.513Z,36.63
2023-04-30T18:49:11.051Z,36.52
2023-04-30T18:51:37.770Z,36.41
2023-04-30T18:54:04.341Z,36.73
2023-04-30T18:56:30.842Z,36.70
2023-04-30T18:58:57.728Z,36.75
2023-04-30T19:01:27.250Z,37.33
2023-04-30T19:03:54.175Z,37.39
2023-04-30T19:06:20.935Z,37.49
2023-04-30T19:08:47.481Z,36.78
2023-04-30T19:11:13.958Z,37.27
2023-04-30T19:13:40.524Z,37.13
2023-04-30T19:16:06.969Z,37.32
2023-04-30T19:18:34.983Z,37.54
2023-04-30T19:21:02.346Z,37.29
2023-04-30T19:23:30.794Z,37.44
2023-04-30T19:26:00.618Z,37.53
2023-04-30T19:28:27.395Z,37.44
2023-04-30T19:30:54.961Z,37.34
2023-04-30T19:33:22.471Z,37.62
2023-04-30T19:35:49.983Z,37.70
2023-04-30T19:38:17.079Z,37.49
2023-04-30T19:40:52.327Z,38.01
2023-04-30T19:43:20.398Z,38.43
2023-04-30T19:45:49.857Z,38.15
2023-04-30T19:48:16.467Z,38.43
2023-04-30T19:50:45.227Z,38.16
2023-04-30T19:53:12.088Z,38.34
2023-04-30T19:55:38.863Z,38.48
2023-04-30T19:58:05.619Z,38.84
2023-04-30T20:00:37.066Z,38.77
2023-04-30T20:03:06.997Z,38.56
2023-04-30T20:05:35.149Z,39.45
2023-04-30T20:08:03.388Z,38.77
2023-04-30T20:10:31.296Z,39.24
2023-04-30T20:12:57.746Z,38.93
2023-04-30T20:15:24.992Z,39.05
2023-04-30T20:17:52.819Z,39.53
2023-04-30T20:20:20.934Z,39.28
2023-04-30T20:22:50.266Z,39.63
2023-04-30T20:25:16.916Z,39.75
2023-04-30T20:27:43.758Z,39.91
2023-04-30T20:30:11.620Z,40.00
2023-04-30T20:32:39.133Z,39.93
2023-04-30T20:35:11.779Z,40.14
2023-04-30T20:37:38.492Z,40.58
2023-04-30T20:40:08.130Z,40.45
2023-04-30T20:42:36.665Z,41.03
2023-04-30T20:45:05.946Z,41.17
2023-04-30T20:47:32.606Z,40.87
2023-04-30T20:49:59.078Z,41.52
2023-04-30T20:52:26.099Z,41.92
2023-04-30T20:54:52.750Z,41.89
2023-04-30T20:57:19.296Z,42.10
2023-04-30T20:59:45.813Z,42.26
2023-04-30T21:02:12.317Z,42.10
2023-04-30T21:04:38.790Z,42.26
2023-04-30T21:07:05.576Z,42.14
2023-04-30T21:09:34.534Z,42.21
2023-04-30T21:12:04.325Z,41.87
2023-04-30T21:14:31.434Z,41.61
2023-04-30T21:16:59.200Z,41.87
2023-04-30T21:19:26.504Z,41.94
2023-04-30T21:21:53.138Z,42.08
2023-04-30T21:24:19.720Z,41.80
2023-04-30T21:26:46.645Z,41.98
2023-04-30T21:29:13.092Z,41.96
2023-04-30T21:31:39.897Z,43.12
2023-04-30T21:34:06.351Z,42.95
2023-04-30T21:36:33.304Z,43.38
2023-04-30T21:38:59.809Z,43.00
2023-04-30T21:41:27.950Z,43.20
2023-04-30T21:43:54.900Z,43.56
2023-04-30T21:46:22.604Z,43.54
2023-04-30T21:48:49.131Z,43.56
2023-04-30T21:51:17.441Z,43.31
2023-04-30T21:53:45.467Z,43.48
2023-04-30T21:56:12.362Z,43.34
2023-04-30T21:58:39.228Z,43.11
2023-04-30T22:01:05.816Z,42.54
2023-04-30T22:03:32.754Z,42.72
2023-04-30T22:05:59.892Z,43.10
2023-04-30T22:08:26.613Z,43.06
2023-04-30T22:10:58.825Z,43.35
2023-04-30T22:13:28.747Z,42.94
2023-04-30T22:15:56.643Z,43.03
2023-04-30T22:18:24.583Z,43.14
2023-04-30T22:20:51.953Z,42.88
2023-04-30T22:23:21.117Z,42.83
2023-04-30T22:25:47.912Z,42.67
2023-04-30T22:28:16.936Z,42.84
2023-04-30T22:30:43.848Z,42.70
2023-04-30T22:33:10.512Z,42.45
2023-04-30T22:35:40.237Z,42.90
2023-04-30T22:38:07.824Z,43.03
2023-04-30T22:40:35.395Z,42.93
2023-04-30T22:43:02.253Z,42.91
2023-04-30T22:45:31.843Z,42.76
2023-04-30T22:48:01.333Z,42.69
2023-04-30T22:50:28.423Z,42.60
2023-04-30T22:52:56.252Z,42.74
2023-04-30T22:55:22.807Z,42.18
2023-04-30T22:57:49.852Z,42.61
2023-04-30T23:00:18.177Z,42.62
2023-04-30T23:02:44.916Z,43.46
2023-04-30T23:05:12.858Z,43.55
2023-04-30T23:07:39.647Z,43.59
2023-04-30T23:10:07.058Z,43.54
2023-04-30T23:12:35.601Z,43.58
2023-04-30T23:15:02.099Z,43.13
2023-04-30T23:17:28.857Z,43.16
2023-04-30T23:19:55.572Z,42.90
2023-04-30T23:22:22.331Z,43.70
2023-04-30T23:24:48.851Z,43.60
2023-04-30T23:27:15.375Z,43.30
2023-04-30T23:29:42.892Z,43.02
2023-04-30T23:32:09.548Z,42.89
2023-04-30T23:34:36.146Z,43.19
2023-04-30T23:37:02.941Z,43.34
2023-04-30T23:39:29.695Z,43.21
2023-04-30T23:41:56.674Z,42.84
2023-04-30T23:44:23.322Z,42.56
2023-04-30T23:46:51.031Z,42.75
2023-04-30T23:49:18.272Z,43.22
2023-04-30T23:51:45.740Z,43.48
2023-04-30T23:54:12.449Z,43.48
2023-04-30T23:56:38.950Z,43.58
2023-04-30T23:59:05.661Z,43.52
